createdAt,value
2018-06-18T14:50:11.677Z,1014.24
2018-06-18T14:51:11.088Z,1014.24
2018-06-18T14:52:10.221Z,1014.28
2018-06-18T14:53:10.921Z,1014.30
2018-06-18T14:54:11.224Z,1014.29
2018-06-18T14:55:10.279Z,1014.28
2018-06-18T14:56:10.215Z,1014.23
2018-06-18T14:57:10.342Z,1014.22
2018-06-18T14:58:10.276Z,1014.19
2018-06-18T14:59:09.947Z,1014.17
2018-06-18T15:00:09.967Z,1014.16
2018-06-18T15:01:09.885Z,1014.15
2018-06-18T15:02:09.875Z,1014.16
2018-06-18T15:03:10.015Z,1014.17
2018-06-18T15:04:09.875Z,1014.17
2018-06-18T15:05:09.971Z,1014.16
2018-06-18T15:06:09.756Z,1014.15
2018-06-18T15:07:09.744Z,1014.15
2018-06-18T15:08:10.118Z,1014.16
2018-06-18T15:09:09.897Z,1014.15
2018-06-18T15:10:10.504Z,1014.15
2018-06-18T15:11:09.607Z,1014.16
2018-06-18T15:12:10.077Z,1014.14
2018-06-18T15:13:10.142Z,1014.15
2018-06-18T15:14:09.503Z,1014.14
2018-06-18T15:15:09.553Z,1014.13
2018-06-18T15:16:09.787Z,1014.11
2018-06-18T15:17:09.497Z,1014.09
2018-06-18T15:18:09.417Z,1014.09
2018-06-18T15:19:09.596Z,1014.08
2018-06-18T15:20:09.442Z,1014.06
2018-06-18T15:21:09.381Z,1014.10
2018-06-18T15:22:09.446Z,1014.08
2018-06-18T15:23:09.515Z,1014.09
2018-06-18T15:24:09.201Z,1014.07
2018-06-18T15:25:09.458Z,1014.02
2018-06-18T15:26:09.228Z,1014.00
2018-06-18T15:27:09.127Z,1014.01
2018-06-18T15:28:09.066Z,1014.01
2018-06-18T15:29:09.076Z,1013.99
2018-06-18T15:30:09.242Z,1013.95
2018-06-18T15:31:09.206Z,1013.91
2018-06-18T15:32:09.038Z,1013.92
2018-06-18T15:33:09.151Z,1013.93
2018-06-18T15:34:08.864Z,1013.95
2018-06-18T15:35:08.815Z,1013.92
2018-06-18T15:36:08.784Z,1013.93
2018-06-18T15:37:08.888Z,1013.95
2018-06-18T15:38:08.859Z,1013.94
2018-06-18T15:39:08.732Z,1013.97
2018-06-18T15:40:08.741Z,1013.92
2018-06-18T15:41:08.706Z,1013.90
2018-06-18T15:42:09.624Z,1013.89
2018-06-18T15:43:08.577Z,1013.87
2018-06-18T15:44:08.742Z,1013.92
2018-06-18T15:45:08.505Z,1013.87
2018-06-18T15:46:08.875Z,1013.90
2018-06-18T15:47:08.452Z,1013.92
2018-06-18T15:48:08.620Z,1013.93
2018-06-18T15:49:08.429Z,1013.89
2018-06-18T15:50:08.778Z,1013.92
